This is the latest recevied weather packets stored in our database for station/object LRIA. If no packets are shown the sender has not sent any weather packets the latest 10 day(s).
| Time | Temp. | Humidity | Pressure | Rain* | Wind** | Luminosity | Snow |
|---|---|---|---|---|---|---|---|
| 1778125700 | 11.11° C | 67% | 1015 hPa | - | - | - | - |
| 1778124803 | 11.11° C | 67% | 1015 hPa | - | - | - | - |
| 1778123903 | 10° C | 71% | 1015 hPa | - | - | - | - |
| 1778123003 | 10° C | 71% | 1015 hPa | - | - | - | - |
| 1778122103 | 10° C | 71% | 1015 hPa | - | - | - | - |
| 1778121203 | 10° C | 71% | 1015 hPa | - | - | - | - |
| 1778120303 | 11.11° C | 67% | 1014 hPa | - | - | - | - |
| 1778119403 | 11.11° C | 67% | 1014 hPa | - | - | - | - |
| 1778118503 | 12.78° C | 55% | 1014 hPa | - | - | - | - |
| 1778117603 | 12.78° C | 55% | 1014 hPa | - | - | - | - |
| 1778116703 | 13.89° C | 48% | 1014 hPa | - | - | - | - |
| 1778115804 | 13.89° C | 48% | 1014 hPa | - | - | - | - |
| 1778114903 | 13.89° C | 48% | 1015 hPa | - | - | - | - |
| 1778114004 | 13.89° C | 48% | 1015 hPa | - | - | - | - |
| 1778113103 | 13.89° C | 48% | 1015 hPa | - | - | - | - |
| 1778112203 | 13.89° C | 48% | 1015 hPa | - | - | - | - |
| 1778111303 | 15° C | 45% | 1015 hPa | - | - | - | - |
| 1778110403 | 15° C | 45% | 1015 hPa | - | - | - | - |
| 1778109504 | 17.22° C | 42% | 1015 hPa | - | - | - | - |
| 1778108603 | 17.22° C | 42% | 1015 hPa | - | - | - | - |
| 1778107700 | 16.11° C | 48% | 1014 hPa | - | - | - | - |
| 1778106803 | 16.11° C | 48% | 1014 hPa | - | - | - | - |
| 1778105903 | 17.22° C | 49% | 1015 hPa | - | - | - | - |
| 1778105003 | 17.22° C | 49% | 1015 hPa | - | - | - | - |
| 1778104119 | 17.22° C | 49% | 1014 hPa | - | - | - | - |
* Rain since midnight (hover to see other rain measurements)
** Current wind speed in m/s (hover to see current wind gust speed)